Time;durP1;ratioP1;P1;durP2;ratioP2;P2;SDS_P1;SDS_P2;PMS_P1;PMS_P2;Temp;Humidity;BMP_temperature;BMP_pressure;BME280_temperature;BME280_humidity;BME280_pressure;Samples;Min_cycle;Max_cycle;Signal;HPM_P1;HPM_P2
2024/02/13 00:00:10;;;;;;;3.73;2.50;;;5.00;99.90;;;;;;4992438;28;20498;-68
2024/02/13 00:02:37;;;;;;;5.87;2.60;;;5.00;99.90;;;;;;4992486;28;20454;-69
2024/02/13 00:05:07;;;;;;;11.77;2.93;;;5.00;99.90;;;;;;4992346;28;20495;-68
2024/02/13 00:07:33;;;;;;;12.17;2.97;;;5.00;99.90;;;;;;4990794;28;20800;-69
2024/02/13 00:09:59;;;;;;;9.90;3.20;;;4.90;99.90;;;;;;4995227;28;20787;-68
2024/02/13 00:12:25;;;;;;;7.90;3.27;;;4.90;99.90;;;;;;4996355;28;20426;-69
2024/02/13 00:14:51;;;;;;;5.53;3.20;;;4.90;99.90;;;;;;4996477;28;20201;-68
2024/02/13 00:17:17;;;;;;;4.43;3.00;;;4.90;99.90;;;;;;4996065;28;20168;-68
2024/02/13 00:19:42;;;;;;;6.80;3.70;;;4.90;99.90;;;;;;4996292;28;20509;-68
2024/02/13 00:22:11;;;;;;;4.93;3.30;;;4.90;99.90;;;;;;4996109;28;20937;-68
2024/02/13 00:24:50;;;;;;;8.30;3.83;;;4.90;99.90;;;;;;4994808;28;20207;-69
2024/02/13 00:27:16;;;;;;;11.50;4.97;;;4.90;99.90;;;;;;4995955;28;20425;-68
2024/02/13 00:29:44;;;;;;;11.50;3.93;;;4.90;99.90;;;;;;4996161;28;20418;-69
2024/02/13 00:32:13;;;;;;;7.67;5.53;;;4.90;99.90;;;;;;4995992;28;20434;-68
2024/02/13 00:34:39;;;;;;;4.60;3.17;;;5.00;99.90;;;;;;4995638;28;21123;-69
2024/02/13 00:37:05;;;;;;;5.40;2.87;;;4.90;99.90;;;;;;4994175;28;20427;-69
2024/02/13 00:39:31;;;;;;;4.40;3.30;;;4.90;99.90;;;;;;4984643;28;20435;-69
2024/02/13 00:41:57;;;;;;;4.37;3.00;;;4.90;99.90;;;;;;4976371;28;20634;-68
2024/02/13 00:44:24;;;;;;;10.27;2.90;;;4.80;99.90;;;;;;4976356;28;20482;-69
2024/02/13 00:46:52;;;;;;;6.10;3.27;;;4.80;99.90;;;;;;4975889;28;20192;-68
2024/02/13 00:49:19;;;;;;;6.73;3.37;;;4.70;99.90;;;;;;4990006;28;20454;-69
2024/02/13 00:51:45;;;;;;;7.37;3.30;;;4.70;99.90;;;;;;4994132;28;20974;-68
2024/02/13 00:54:13;;;;;;;10.20;3.10;;;4.70;99.90;;;;;;4995595;28;20502;-69
2024/02/13 00:56:42;;;;;;;2.80;2.30;;;4.70;99.90;;;;;;4995202;28;20445;-69
2024/02/13 00:59:08;;;;;;;3.13;2.50;;;4.80;99.90;;;;;;4995450;28;20426;-69
2024/02/13 01:01:34;;;;;;;4.77;3.00;;;4.80;99.90;;;;;;4995072;28;20426;-69
2024/02/13 01:04:04;;;;;;;2.90;2.53;;;4.90;99.90;;;;;;4975919;28;20192;-68
2024/02/13 01:06:30;;;;;;;4.50;3.03;;;5.00;99.90;;;;;;4975733;28;20444;-69
2024/02/13 01:08:56;;;;;;;5.80;2.70;;;5.10;99.90;;;;;;4977127;28;20431;-68
2024/02/13 01:11:22;;;;;;;4.60;2.83;;;5.10;99.90;;;;;;4975935;28;20219;-69
2024/02/13 01:13:48;;;;;;;4.63;3.00;;;5.20;99.90;;;;;;4975705;28;20482;-69
2024/02/13 01:16:14;;;;;;;7.97;3.80;;;5.30;99.90;;;;;;4975594;28;20843;-69
2024/02/13 01:18:41;;;;;;;6.10;2.80;;;5.40;99.90;;;;;;4984010;28;20516;-69
2024/02/13 01:21:11;;;;;;;5.70;2.80;;;5.40;99.90;;;;;;4994586;28;20965;-69
2024/02/13 01:23:37;;;;;;;4.17;3.63;;;5.50;99.90;;;;;;4993490;28;20468;-69
2024/02/13 01:26:03;;;;;;;4.60;3.00;;;5.60;99.90;;;;;;4994950;28;20439;-69
2024/02/13 01:28:28;;;;;;;8.60;3.30;;;5.60;99.90;;;;;;4994629;28;20419;-69
2024/02/13 01:30:54;;;;;;;5.93;3.30;;;5.60;99.90;;;;;;4994848;28;20176;-69
2024/02/13 01:33:19;;;;;;;5.13;3.50;;;5.60;99.90;;;;;;4995234;28;20187;-69
2024/02/13 01:35:45;;;;;;;7.70;3.30;;;5.60;99.90;;;;;;4978908;28;20223;-69
2024/02/13 01:38:12;;;;;;;2.30;2.10;;;5.60;99.90;;;;;;4982547;28;20186;-69
2024/02/13 01:40:37;;;;;;;6.80;3.17;;;5.60;99.90;;;;;;4994778;28;20174;-69
2024/02/13 01:43:03;;;;;;;7.83;3.10;;;5.60;99.90;;;;;;4994612;28;20446;-69
2024/02/13 01:45:29;;;;;;;4.83;2.93;;;5.70;99.90;;;;;;4994490;28;20210;-69
2024/02/13 01:47:55;;;;;;;3.50;2.40;;;5.70;99.90;;;;;;4994395;28;20194;-69
2024/02/13 01:50:21;;;;;;;6.43;2.60;;;5.70;99.90;;;;;;4993055;28;20267;-68
2024/02/13 01:52:50;;;;;;;5.70;2.47;;;5.70;99.90;;;;;;4993094;28;20941;-68
2024/02/13 01:55:19;;;;;;;5.33;2.53;;;5.70;99.90;;;;;;4994435;28;20443;-69
2024/02/13 01:57:45;;;;;;;4.30;2.80;;;5.70;99.90;;;;;;4994091;28;20481;-68
2024/02/13 02:00:15;;;;;;;3.00;2.37;;;5.80;99.90;;;;;;4994346;28;20917;-69
2024/02/13 02:02:43;;;;;;;3.23;2.57;;;5.80;99.90;;;;;;4994400;28;20279;-68
2024/02/13 02:05:13;;;;;;;6.80;2.87;;;5.70;99.90;;;;;;4994354;28;20470;-68
2024/02/13 02:07:42;;;;;;;5.40;3.00;;;5.70;99.90;;;;;;4990872;28;20449;-68
2024/02/13 02:10:09;;;;;;;4.37;2.50;;;5.60;99.90;;;;;;4994427;28;20442;-68
2024/02/13 02:12:39;;;;;;;3.70;2.90;;;5.60;99.90;;;;;;4994149;28;20892;-68
2024/02/13 02:15:05;;;;;;;8.97;3.20;;;5.50;99.90;;;;;;4994110;28;20438;-69
2024/02/13 02:17:31;;;;;;;5.10;2.37;;;5.40;99.90;;;;;;4993494;28;20437;-68
2024/02/13 02:19:57;;;;;;;7.70;3.10;;;5.30;99.90;;;;;;4993992;28;20422;-69
2024/02/13 02:22:23;;;;;;;5.43;2.80;;;5.20;99.90;;;;;;4991955;28;20849;-69
2024/02/13 02:24:49;;;;;;;8.23;2.50;;;5.10;99.90;;;;;;4984360;28;20713;-68
2024/02/13 02:27:15;;;;;;;4.90;2.47;;;5.10;99.90;;;;;;4974119;28;20458;-68
2024/02/13 02:29:41;;;;;;;4.40;2.80;;;5.00;99.90;;;;;;4974566;28;20288;-68
2024/02/13 02:32:09;;;;;;;6.07;3.37;;;5.00;99.90;;;;;;4973607;28;20907;-68
2024/02/13 02:34:35;;;;;;;4.60;2.93;;;5.00;99.90;;;;;;4974159;28;20203;-68
2024/02/13 02:37:01;;;;;;;3.63;2.77;;;4.90;99.90;;;;;;4975163;28;20502;-69
2024/02/13 02:39:27;;;;;;;2.93;2.67;;;4.90;99.90;;;;;;4974129;28;20423;-69
2024/02/13 02:41:53;;;;;;;10.93;3.60;;;4.90;99.90;;;;;;4974066;28;20412;-68
2024/02/13 02:44:19;;;;;;;3.50;3.20;;;4.90;99.90;;;;;;4974079;28;20431;-68
2024/02/13 02:46:45;;;;;;;3.17;2.17;;;4.90;99.90;;;;;;4973827;28;20192;-69
2024/02/13 02:49:10;;;;;;;5.80;2.93;;;5.00;99.90;;;;;;4974147;28;20168;-69
2024/02/13 02:51:36;;;;;;;5.73;3.33;;;5.00;99.90;;;;;;4978232;28;20936;-68
2024/02/13 02:54:01;;;;;;;4.00;3.00;;;4.90;99.90;;;;;;4976026;28;20168;-68
2024/02/13 02:56:27;;;;;;;8.40;3.80;;;4.90;99.90;;;;;;4992940;28;20191;-69
2024/02/13 02:58:55;;;;;;;4.83;2.53;;;4.90;99.90;;;;;;4993466;28;20179;-68
2024/02/13 03:01:22;;;;;;;6.17;2.40;;;4.80;99.90;;;;;;4993348;28;20175;-68
2024/02/13 03:03:50;;;;;;;6.17;2.70;;;4.80;99.90;;;;;;4993172;28;20853;-69
2024/02/13 03:06:16;;;;;;;3.43;2.57;;;4.80;99.90;;;;;;4991609;28;20447;-69
2024/02/13 03:08:42;;;;;;;6.50;2.87;;;4.80;99.90;;;;;;4993199;28;21337;-68
2024/02/13 03:11:08;;;;;;;5.17;2.67;;;4.80;99.90;;;;;;4993270;28;20494;-69
2024/02/13 03:13:34;;;;;;;3.80;2.97;;;4.90;99.90;;;;;;4993191;28;20168;-68
2024/02/13 03:16:00;;;;;;;4.47;2.30;;;4.90;99.90;;;;;;4993002;28;20431;-69
2024/02/13 03:18:26;;;;;;;8.77;3.10;;;4.90;99.90;;;;;;4992965;28;20179;-69
2024/02/13 03:20:52;;;;;;;2.87;2.60;;;4.90;99.90;;;;;;4991521;28;20184;-68
2024/02/13 03:23:17;;;;;;;5.30;2.23;;;4.90;99.90;;;;;;4992764;28;21021;-68
2024/02/13 03:25:43;;;;;;;5.00;2.60;;;4.90;99.90;;;;;;4992797;28;20202;-68
2024/02/13 03:28:08;;;;;;;6.20;2.70;;;4.80;99.90;;;;;;4992685;28;20222;-69
2024/02/13 03:30:34;;;;;;;5.53;2.50;;;4.70;99.90;;;;;;4992853;28;20625;-68
2024/02/13 03:33:00;;;;;;;4.57;2.70;;;4.60;99.90;;;;;;4992766;28;20642;-69
2024/02/13 03:35:26;;;;;;;4.20;2.90;;;4.60;99.90;;;;;;4991158;28;20322;-69
2024/02/13 03:37:52;;;;;;;5.90;2.23;;;4.60;99.90;;;;;;4992739;28;20497;-68
2024/02/13 03:40:17;;;;;;;4.20;2.53;;;4.60;99.90;;;;;;4975403;28;20176;-68
2024/02/13 03:42:46;;;;;;;6.93;2.77;;;4.60;99.90;;;;;;4992420;28;20254;-68
2024/02/13 03:45:11;;;;;;;7.70;2.43;;;4.60;99.90;;;;;;4992638;28;20676;-68
2024/02/13 03:47:37;;;;;;;3.07;2.57;;;4.60;99.90;;;;;;4992509;28;20411;-69
2024/02/13 03:50:03;;;;;;;3.70;2.20;;;4.70;99.90;;;;;;4991246;28;20167;-69
2024/02/13 03:52:31;;;;;;;3.80;2.33;;;4.70;99.90;;;;;;4992435;28;20429;-68
2024/02/13 03:54:57;;;;;;;3.83;2.80;;;4.70;99.90;;;;;;4973172;28;20450;-69
2024/02/13 03:57:23;;;;;;;5.50;2.33;;;4.80;99.90;;;;;;4972933;28;20430;-69
2024/02/13 03:59:49;;;;;;;7.17;2.50;;;4.80;99.90;;;;;;4973216;28;20478;-69
2024/02/13 04:02:15;;;;;;;4.73;2.53;;;4.80;99.90;;;;;;4973315;28;20784;-68
2024/02/13 04:04:40;;;;;;;4.53;2.70;;;4.90;99.90;;;;;;4974387;28;20172;-69
2024/02/13 04:07:06;;;;;;;4.80;3.03;;;4.90;99.90;;;;;;4972796;28;20558;-69
2024/02/13 04:09:31;;;;;;;11.80;7.33;;;5.00;99.90;;;;;;4973149;28;20172;-68
2024/02/13 04:11:57;;;;;;;6.27;4.57;;;5.00;99.90;;;;;;4973146;28;20169;-68
2024/02/13 04:14:23;;;;;;;7.90;4.47;;;5.00;99.90;;;;;;4973116;28;20412;-69
2024/02/13 04:16:49;;;;;;;8.33;3.67;;;5.00;99.90;;;;;;4972652;28;20283;-69
2024/02/13 04:19:15;;;;;;;5.20;3.13;;;5.00;99.90;;;;;;4976809;28;20450;-69
2024/02/13 04:21:40;;;;;;;5.87;4.10;;;4.90;99.90;;;;;;4992559;28;20430;-69
2024/02/13 04:24:06;;;;;;;8.17;3.93;;;4.90;99.90;;;;;;4992365;28;20199;-69
2024/02/13 04:26:32;;;;;;;5.73;3.23;;;4.90;99.90;;;;;;4991975;28;20275;-69
2024/02/13 04:28:58;;;;;;;4.73;2.77;;;4.80;99.90;;;;;;4992315;28;20481;-69
2024/02/13 04:31:24;;;;;;;3.30;2.00;;;4.80;99.90;;;;;;4992180;28;20422;-68
2024/02/13 04:33:50;;;;;;;5.57;3.37;;;4.70;99.90;;;;;;4990777;28;20191;-68
2024/02/13 04:36:17;;;;;;;3.33;2.07;;;4.70;99.90;;;;;;4987119;28;20467;-68
2024/02/13 04:38:43;;;;;;;3.93;1.97;;;4.70;99.90;;;;;;4992127;28;20175;-68
2024/02/13 04:41:09;;;;;;;5.17;2.27;;;4.60;99.90;;;;;;4992303;28;20485;-68
2024/02/13 04:43:35;;;;;;;2.30;1.67;;;4.70;99.90;;;;;;4992185;28;20975;-69
2024/02/13 04:46:01;;;;;;;2.40;2.20;;;4.60;99.90;;;;;;4992037;28;20238;-69
2024/02/13 04:48:26;;;;;;;3.30;2.03;;;4.60;99.90;;;;;;4990399;28;20230;-69
2024/02/13 04:50:52;;;;;;;3.73;2.03;;;4.60;99.90;;;;;;4992025;28;20763;-68
2024/02/13 04:53:21;;;;;;;3.83;2.30;;;4.60;99.90;;;;;;4992100;28;20172;-68
2024/02/13 04:55:47;;;;;;;2.70;2.33;;;4.60;99.90;;;;;;4994279;28;20434;-68
2024/02/13 04:58:17;;;;;;;4.17;2.57;;;4.70;99.90;;;;;;4995228;28;20916;-69
2024/02/13 05:01:01;;;;;;;3.70;2.33;;;4.70;99.90;;;;;;4995561;28;20171;-69
2024/02/13 05:09:10;;;;;;;8.27;4.23;;;4.60;99.90;;;;;;4995377;28;20434;-68
2024/02/13 05:11:35;;;;;;;4.30;2.70;;;4.60;99.90;;;;;;4995221;28;20786;-69
2024/02/13 05:14:02;;;;;;;5.03;2.60;;;4.60;99.90;;;;;;4995305;28;20429;-69
2024/02/13 05:16:29;;;;;;;7.60;3.50;;;4.50;99.90;;;;;;4994790;28;20188;-68
2024/02/13 05:18:55;;;;;;;4.83;2.60;;;4.50;99.90;;;;;;4993765;28;20856;-68
2024/02/13 05:21:21;;;;;;;3.67;2.40;;;4.50;99.90;;;;;;4995134;28;20414;-69
2024/02/13 05:23:47;;;;;;;7.03;3.50;;;4.50;99.90;;;;;;4995061;28;20187;-68
2024/02/13 05:26:17;;;;;;;4.40;2.00;;;4.50;99.90;;;;;;4994947;28;20474;-69
2024/02/13 05:28:43;;;;;;;4.97;2.27;;;4.50;99.90;;;;;;4995027;28;20419;-68
2024/02/13 05:31:09;;;;;;;5.10;2.20;;;4.40;99.90;;;;;;4994480;28;20854;-68
2024/02/13 05:33:35;;;;;;;4.93;2.67;;;4.40;99.90;;;;;;4990899;28;20513;-69
2024/02/13 05:36:02;;;;;;;4.70;3.03;;;4.40;99.90;;;;;;4975173;28;20208;-69
2024/02/13 05:38:28;;;;;;;7.27;2.97;;;4.30;99.90;;;;;;4975157;28;20232;-69
2024/02/13 05:40:54;;;;;;;5.13;2.53;;;4.30;99.90;;;;;;4975283;28;20426;-69
2024/02/13 05:43:20;;;;;;;3.63;2.33;;;4.30;99.90;;;;;;4975137;28;20534;-68
2024/02/13 05:45:47;;;;;;;7.00;3.50;;;4.30;99.90;;;;;;4975205;28;20181;-68
2024/02/13 05:48:13;;;;;;;4.17;2.93;;;4.30;99.90;;;;;;4976108;28;20816;-68
2024/02/13 05:50:39;;;;;;;4.97;2.93;;;4.20;99.90;;;;;;4975232;28;20459;-68
2024/02/13 05:53:06;;;;;;;9.87;4.47;;;4.30;99.90;;;;;;4975085;28;20455;-69
2024/02/13 05:55:32;;;;;;;3.23;2.63;;;4.30;99.90;;;;;;4975125;28;20195;-68
2024/02/13 05:57:58;;;;;;;2.17;1.97;;;4.40;99.90;;;;;;4974753;28;20510;-68
2024/02/13 06:00:25;;;;;;;6.43;3.33;;;4.50;99.90;;;;;;4975300;28;20176;-69
2024/02/13 06:02:54;;;;;;;4.20;2.60;;;4.50;99.90;;;;;;4975495;28;20447;-68
2024/02/13 06:05:23;;;;;;;7.40;2.37;;;4.60;99.90;;;;;;4974642;28;20440;-69
2024/02/13 06:07:50;;;;;;;5.00;3.07;;;4.60;99.90;;;;;;4974483;28;20424;-68
2024/02/13 06:10:16;;;;;;;6.33;3.30;;;4.60;99.90;;;;;;4975049;28;20424;-68
2024/02/13 06:12:42;;;;;;;3.83;3.40;;;4.60;99.90;;;;;;4974617;28;20462;-69
2024/02/13 06:15:09;;;;;;;3.87;3.30;;;4.60;99.90;;;;;;4974753;28;20486;-69
2024/02/13 06:17:35;;;;;;;4.17;3.20;;;4.70;99.90;;;;;;4989406;28;20434;-69
2024/02/13 06:20:05;;;;;;;5.77;3.90;;;4.80;99.90;;;;;;4994162;28;20422;-69
2024/02/13 06:22:35;;;;;;;5.40;3.77;;;4.90;99.90;;;;;;4993955;28;20508;-69
2024/02/13 06:25:02;;;;;;;5.40;3.07;;;4.90;99.90;;;;;;4993837;28;20443;-69
2024/02/13 06:27:27;;;;;;;17.00;3.83;;;5.00;99.90;;;;;;4993582;28;20505;-68
2024/02/13 06:29:53;;;;;;;9.30;3.17;;;4.90;99.90;;;;;;4992395;28;20895;-69
2024/02/13 06:32:18;;;;;;;7.67;3.70;;;4.80;99.90;;;;;;4990225;28;20262;-68
2024/02/13 06:34:44;;;;;;;5.33;3.00;;;4.80;99.90;;;;;;4993507;28;20183;-69
2024/02/13 06:37:10;;;;;;;6.53;2.63;;;4.90;99.90;;;;;;4993596;28;20525;-69
2024/02/13 06:39:36;;;;;;;7.90;2.93;;;4.90;99.90;;;;;;4993843;28;20166;-69
2024/02/13 06:42:02;;;;;;;4.57;2.73;;;5.00;99.90;;;;;;4993532;28;20920;-69
2024/02/13 06:44:28;;;;;;;3.20;3.00;;;5.00;99.90;;;;;;4993532;28;20481;-68
2024/02/13 06:46:54;;;;;;;4.00;2.93;;;5.10;99.90;;;;;;4991829;28;20184;-68
2024/02/13 06:49:20;;;;;;;6.73;2.60;;;5.00;99.90;;;;;;4993410;28;20172;-69
2024/02/13 06:51:45;;;;;;;10.17;3.47;;;5.00;99.90;;;;;;4993389;28;20844;-68
2024/02/13 06:54:11;;;;;;;8.80;3.17;;;5.10;99.90;;;;;;4993400;28;20924;-69
2024/02/13 06:56:38;;;;;;;7.80;3.97;;;5.10;99.90;;;;;;4975518;28;20268;-68
2024/02/13 06:59:03;;;;;;;3.73;2.53;;;5.20;99.90;;;;;;4991745;28;20164;-68
2024/02/13 07:01:29;;;;;;;6.13;2.87;;;5.30;99.90;;;;;;4993254;28;20480;-69
2024/02/13 07:03:55;;;;;;;11.03;4.10;;;5.30;99.90;;;;;;4991621;28;20195;-69
2024/02/13 07:06:20;;;;;;;5.33;3.10;;;5.30;99.90;;;;;;4980445;28;20522;-69
2024/02/13 07:08:46;;;;;;;6.67;3.50;;;5.30;99.90;;;;;;4973523;28;20175;-68
2024/02/13 07:11:11;;;;;;;8.47;3.53;;;5.40;99.90;;;;;;4973934;28;20179;-69
2024/02/13 07:13:37;;;;;;;8.27;2.90;;;5.60;99.90;;;;;;4973696;28;20183;-68
2024/02/13 07:16:06;;;;;;;3.33;2.67;;;5.70;99.90;;;;;;4988489;28;20205;-68
2024/02/13 07:18:33;;;;;;;9.17;3.70;;;5.80;99.90;;;;;;4992351;28;20695;-68
2024/02/13 07:20:59;;;;;;;5.67;4.53;;;5.70;99.90;;;;;;4992910;28;20430;-69
2024/02/13 07:23:24;;;;;;;5.80;2.90;;;5.80;99.90;;;;;;4992928;28;20468;-69
2024/02/13 07:25:50;;;;;;;5.47;3.03;;;5.90;99.90;;;;;;4992823;28;20250;-69
2024/02/13 07:28:16;;;;;;;3.13;2.83;;;6.00;99.90;;;;;;4991821;28;20168;-69
2024/02/13 07:30:41;;;;;;;7.30;3.20;;;6.00;99.90;;;;;;4978393;28;20230;-68
2024/02/13 07:33:06;;;;;;;6.23;3.90;;;6.00;99.90;;;;;;4992744;28;20251;-69
2024/02/13 07:35:32;;;;;;;6.23;3.13;;;6.00;99.90;;;;;;4992678;28;20226;-69
2024/02/13 07:37:58;;;;;;;6.30;3.27;;;6.00;99.90;;;;;;4992420;28;20238;-68
2024/02/13 07:40:24;;;;;;;3.67;3.30;;;6.10;99.90;;;;;;4992516;28;20539;-68
2024/02/13 07:42:49;;;;;;;3.00;2.77;;;6.30;99.90;;;;;;4992257;28;20541;-68
2024/02/13 07:45:15;;;;;;;10.67;2.63;;;6.60;99.90;;;;;;4989318;28;20187;-69
2024/02/13 07:47:41;;;;;;;7.30;2.80;;;7.10;99.90;;;;;;4990769;28;20172;-69
2024/02/13 07:50:09;;;;;;;3.90;2.90;;;7.70;99.90;;;;;;4992516;28;20172;-69
2024/02/13 07:52:35;;;;;;;4.27;2.37;;;8.50;99.90;;;;;;4992636;28;20447;-69
2024/02/13 07:55:04;;;;;;;2.83;2.03;;;9.20;99.90;;;;;;4992557;28;20922;-70
2024/02/13 07:57:30;;;;;;;3.87;3.03;;;10.00;99.90;;;;;;4990943;28;20433;-69
2024/02/13 07:59:55;;;;;;;4.93;2.93;;;10.20;99.90;;;;;;4974966;28;20431;-69
2024/02/13 08:02:25;;;;;;;7.83;3.03;;;10.60;88.10;;;;;;4992244;28;20259;-70
2024/02/13 08:04:51;;;;;;;3.60;1.83;;;11.00;74.60;;;;;;4992250;28;20197;-69
2024/02/13 08:07:17;;;;;;;3.37;2.90;;;10.90;61.10;;;;;;4992108;28;20502;-69
2024/02/13 08:09:42;;;;;;;4.17;1.97;;;10.90;53.40;;;;;;4992423;28;20506;-69
2024/02/13 08:12:09;;;;;;;4.17;2.00;;;11.10;59.80;;;;;;4992105;28;20546;-69
2024/02/13 08:14:36;;;;;;;2.93;2.20;;;11.30;48.40;;;;;;4976440;28;20634;-69
2024/02/13 08:17:06;;;;;;;4.80;2.43;;;11.60;45.00;;;;;;4983517;28;20433;-70
2024/02/13 08:19:33;;;;;;;7.70;2.77;;;11.90;35.40;;;;;;4992242;28;20783;-69
2024/02/13 08:22:00;;;;;;;3.83;2.53;;;11.80;25.60;;;;;;4991505;28;20422;-69
2024/02/13 08:24:26;;;;;;;9.40;3.07;;;12.30;24.40;;;;;;4992216;28;20458;-69
2024/02/13 08:26:52;;;;;;;5.20;2.47;;;12.90;3.40;;;;;;4990015;28;20454;-69
2024/02/13 08:29:19;;;;;;;5.13;3.03;;;12.90;99.90;;;;;;4972854;28;20169;-69
2024/02/13 08:31:45;;;;;;;3.00;2.70;;;12.80;99.90;;;;;;4976397;28;20789;-69
2024/02/13 08:34:11;;;;;;;4.10;2.77;;;13.00;99.90;;;;;;4976640;28;20423;-70
2024/02/13 08:36:39;;;;;;;4.90;2.47;;;13.20;99.90;;;;;;4975997;28;20218;-70
2024/02/13 08:39:05;;;;;;;6.80;2.80;;;13.50;99.90;;;;;;4976339;28;20176;-69
2024/02/13 08:41:31;;;;;;;3.43;2.60;;;14.00;99.90;;;;;;4979696;28;20414;-69
2024/02/13 08:44:00;;;;;;;3.07;1.97;;;14.10;99.90;;;;;;4994222;28;20271;-70
2024/02/13 08:46:26;;;;;;;5.93;2.50;;;14.70;99.90;;;;;;4995326;28;20453;-70
2024/02/13 08:48:52;;;;;;;2.77;2.47;;;14.70;99.90;;;;;;4995686;28;20419;-67
2024/02/13 08:51:24;;;;;;;3.90;2.70;;;15.40;99.90;;;;;;4995733;28;20654;-70
2024/02/13 08:53:50;;;;;;;4.70;2.33;;;16.10;99.90;;;;;;4995635;28;20171;-68
2024/02/13 08:56:16;;;;;;;6.63;2.00;;;17.10;95.50;;;;;;4993928;28;20457;-68
2024/02/13 08:58:41;;;;;;;5.17;3.37;;;18.10;91.40;;;;;;4995129;28;20422;-67
2024/02/13 09:01:08;;;;;;;4.23;2.60;;;17.70;89.30;;;;;;4990953;28;20645;-67
2024/02/13 09:03:33;;;;;;;5.97;2.63;;;18.10;85.50;;;;;;4975927;28;20286;-67
2024/02/13 09:06:04;;;;;;;3.97;2.00;;;19.40;78.30;;;;;;4975768;28;20526;-67
2024/02/13 09:08:37;;;;;;;4.60;2.33;;;19.30;75.30;;;;;;4975872;28;20427;-68
2024/02/13 09:11:03;;;;;;;6.50;2.30;;;19.20;72.50;;;;;;4976031;28;20503;-67
2024/02/13 09:13:29;;;;;;;3.07;2.47;;;18.90;72.30;;;;;;4994210;28;20514;-67
2024/02/13 09:15:55;;;;;;;3.87;1.90;;;17.90;74.50;;;;;;4995218;28;20184;-68
2024/02/13 09:18:24;;;;;;;4.10;2.17;;;16.70;80.60;;;;;;4994836;28;20411;-68
2024/02/13 09:20:49;;;;;;;2.70;2.03;;;15.90;90.30;;;;;;4994761;28;20190;-69
2024/02/13 09:23:18;;;;;;;4.33;2.67;;;16.00;90.50;;;;;;4994630;28;20533;-67
2024/02/13 09:25:49;;;;;;;3.40;2.33;;;17.10;84.60;;;;;;4992947;28;20196;-67
2024/02/13 09:28:15;;;;;;;3.97;2.20;;;16.60;87.10;;;;;;4994121;28;20411;-67
2024/02/13 09:30:40;;;;;;;3.10;2.30;;;17.50;83.10;;;;;;4975435;28;20778;-67
2024/02/13 09:33:06;;;;;;;2.70;2.13;;;17.90;76.80;;;;;;4975591;28;20427;-67
2024/02/13 09:35:32;;;;;;;2.60;1.83;;;17.80;78.30;;;;;;4975314;28;20251;-69
2024/02/13 09:37:58;;;;;;;4.20;2.90;;;17.20;79.20;;;;;;4975027;28;20179;-69
2024/02/13 09:40:27;;;;;;;4.20;2.60;;;17.00;80.70;;;;;;4975028;28;20275;-69
2024/02/13 09:42:52;;;;;;;4.73;3.23;;;17.60;77.60;;;;;;4994572;28;20482;-69
2024/02/13 09:45:18;;;;;;;2.37;2.23;;;17.70;76.80;;;;;;4975224;28;20447;-69
2024/02/13 09:47:44;;;;;;;3.83;2.80;;;17.20;76.60;;;;;;4974773;28;20666;-69
2024/02/13 09:50:12;;;;;;;6.33;2.40;;;17.00;80.80;;;;;;4979447;28;20172;-70
2024/02/13 09:53:01;;;;;;;3.23;2.47;;;16.80;81.90;;;;;;4994232;28;20175;-69
2024/02/13 09:55:28;;;;;;;3.13;2.60;;;17.40;78.80;;;;;;4994285;28;20439;-69
2024/02/13 09:57:54;;;;;;;2.83;2.53;;;18.40;74.60;;;;;;4986844;28;20438;-70
2024/02/13 10:00:19;;;;;;;2.70;2.50;;;18.40;72.10;;;;;;4975815;28;20427;-69
2024/02/13 10:02:48;;;;;;;5.97;2.50;;;18.30;70.00;;;;;;4974794;28;20192;-69
2024/02/13 10:05:14;;;;;;;4.30;2.50;;;18.40;69.60;;;;;;4979143;28;20279;-69
2024/02/13 10:07:41;;;;;;;4.53;2.20;;;18.40;69.00;;;;;;4994224;28;20451;-69
2024/02/13 10:10:11;;;;;;;3.70;2.80;;;17.60;71.90;;;;;;4994292;28;20167;-69
2024/02/13 10:12:59;;;;;;;2.93;2.30;;;16.90;73.40;;;;;;4979786;28;20439;-69
2024/02/13 10:15:39;;;;;;;2.73;2.50;;;16.10;78.20;;;;;;4987669;28;20485;-69
2024/02/13 10:18:08;;;;;;;3.43;2.63;;;14.90;84.60;;;;;;4993860;28;20433;-69
2024/02/13 10:20:34;;;;;;;3.63;2.40;;;14.70;91.90;;;;;;4994047;28;20419;-69
2024/02/13 10:23:00;;;;;;;4.27;2.47;;;15.80;84.50;;;;;;4994074;28;21255;-69
2024/02/13 10:25:31;;;;;;;4.80;2.23;;;17.20;76.80;;;;;;4989409;28;20475;-69
2024/02/13 10:28:06;;;;;;;5.50;3.23;;;17.60;74.50;;;;;;4977831;28;20450;-70
2024/02/13 10:30:32;;;;;;;3.80;2.93;;;19.50;68.30;;;;;;4972847;28;20521;-69
2024/02/13 10:33:09;;;;;;;2.47;2.27;;;19.90;59.40;;;;;;4991825;28;20525;-70
2024/02/13 10:35:35;;;;;;;2.30;1.90;;;19.80;57.30;;;;;;4993315;28;20198;-69
2024/02/13 10:38:04;;;;;;;2.33;2.07;;;20.50;55.20;;;;;;4993137;28;20427;-69
2024/02/13 10:40:30;;;;;;;2.03;1.83;;;20.70;54.60;;;;;;4989735;28;20462;-66
2024/02/13 10:42:57;;;;;;;1.90;1.67;;;21.10;52.50;;;;;;4973686;28;20443;-69
2024/02/13 10:45:30;;;;;;;3.97;2.13;;;20.60;51.20;;;;;;4980887;28;20975;-69
2024/02/13 10:48:23;;;;;;;5.00;2.53;;;18.90;52.00;;;;;;4992992;28;20484;-69
2024/02/13 10:50:51;;;;;;;2.20;2.10;;;17.70;54.90;;;;;;4993314;28;21043;-69
2024/02/13 10:53:18;;;;;;;2.70;1.70;;;15.80;59.70;;;;;;4992325;28;20908;-69
2024/02/13 10:55:46;;;;;;;2.80;1.93;;;15.60;63.40;;;;;;4991724;28;20956;-71
2024/02/13 10:58:13;;;;;;;2.80;1.60;;;17.70;60.70;;;;;;4992562;28;20434;-68
2024/02/13 11:00:40;;;;;;;1.93;1.37;;;19.80;53.90;;;;;;4992670;28;20501;-71
2024/02/13 11:03:08;;;;;;;1.80;1.70;;;19.50;51.50;;;;;;4992713;28;20446;-70
2024/02/13 11:05:35;;;;;;;2.00;1.87;;;19.50;52.30;;;;;;4992116;28;20454;-66
2024/02/13 11:08:02;;;;;;;3.53;1.87;;;20.60;49.60;;;;;;4991417;28;20912;-68
2024/02/13 11:10:34;;;;;;;2.03;1.60;;;19.60;48.80;;;;;;4990636;28;20890;-71
2024/02/13 11:13:05;;;;;;;3.40;1.67;;;19.10;50.30;;;;;;4992626;28;20892;-69
2024/02/13 11:15:33;;;;;;;2.57;1.70;;;17.80;52.30;;;;;;4992399;28;20453;-68
2024/02/13 11:18:05;;;;;;;2.47;2.23;;;16.10;54.70;;;;;;4992191;28;20488;-68
2024/02/13 11:20:37;;;;;;;1.73;1.33;;;15.50;58.50;;;;;;4992283;28;20427;-68
2024/02/13 11:23:10;;;;;;;3.60;1.60;;;15.70;59.20;;;;;;4989826;28;20493;-68
2024/02/13 11:25:39;;;;;;;2.80;1.20;;;16.00;58.80;;;;;;4991021;28;20442;-68
2024/02/13 11:28:08;;;;;;;2.90;2.00;;;15.30;60.60;;;;;;4989837;28;20454;-68
2024/02/13 11:30:37;;;;;;;3.73;1.73;;;17.30;58.50;;;;;;4992357;28;20419;-69
2024/02/13 11:33:06;;;;;;;4.17;1.57;;;19.50;52.90;;;;;;4988122;28;20807;-68
2024/02/13 11:35:52;;;;;;;2.37;1.70;;;19.80;48.90;;;;;;4992495;28;20951;-68
2024/02/13 11:38:19;;;;;;;3.20;2.23;;;18.00;50.10;;;;;;4992215;28;20457;-69
2024/02/13 11:40:54;;;;;;;4.20;1.50;;;16.30;53.30;;;;;;4974389;28;20435;-68
2024/02/13 11:43:27;;;;;;;3.43;1.60;;;15.40;56.10;;;;;;4972859;28;20535;-68
2024/02/13 11:45:54;;;;;;;2.50;1.50;;;16.50;56.30;;;;;;4973023;28;20530;-68
2024/02/13 11:48:23;;;;;;;2.37;1.50;;;18.20;53.80;;;;;;4987108;28;20506;-67
2024/02/13 11:50:49;;;;;;;2.00;1.20;;;21.20;47.80;;;;;;4992477;28;20448;-69
2024/02/13 11:53:17;;;;;;;3.30;1.13;;;22.30;43.30;;;;;;4992494;28;20422;-67
2024/02/13 11:55:44;;;;;;;1.20;1.10;;;24.70;38.70;;;;;;4973160;28;20208;-67
2024/02/13 11:58:21;;;;;;;1.47;1.33;;;23.20;36.10;;;;;;4991877;28;20431;-68
2024/02/13 12:01:04;;;;;;;2.10;1.60;;;21.50;38.70;;;;;;4974819;28;20431;-68
2024/02/13 12:03:34;;;;;;;1.90;1.20;;;20.40;40.20;;;;;;4992408;28;20533;-68
2024/02/13 12:06:01;;;;;;;1.83;1.53;;;18.10;42.90;;;;;;4996076;28;20796;-69
2024/02/13 12:08:28;;;;;;;2.87;1.47;;;16.70;47.20;;;;;;4990755;28;20427;-68
2024/02/13 12:10:57;;;;;;;1.67;1.20;;;15.40;51.30;;;;;;4959221;28;20423;-68
2024/02/13 12:13:23;;;;;;;1.67;1.57;;;14.10;55.70;;;;;;4976785;28;20793;-68
2024/02/13 12:15:49;;;;;;;1.93;1.37;;;13.50;62.90;;;;;;4976620;28;20526;-68
2024/02/13 12:18:17;;;;;;;1.77;1.50;;;13.20;63.30;;;;;;4982988;28;20928;-68
2024/02/13 12:20:50;;;;;;;1.87;1.20;;;13.20;64.70;;;;;;4995971;28;20422;-68
2024/02/13 12:23:16;;;;;;;1.17;1.10;;;13.10;65.20;;;;;;4994113;28;20466;-68
2024/02/13 12:25:43;;;;;;;3.00;1.60;;;13.10;67.90;;;;;;4995584;28;20454;-68
2024/02/13 12:28:12;;;;;;;1.23;1.13;;;13.40;66.70;;;;;;4978089;28;20180;-68
2024/02/13 12:30:39;;;;;;;3.07;1.20;;;13.30;67.60;;;;;;4976624;28;20423;-68
2024/02/13 12:33:09;;;;;;;1.40;1.30;;;13.30;67.40;;;;;;4976516;28;20423;-68
2024/02/13 12:35:36;;;;;;;1.73;1.60;;;13.00;70.50;;;;;;4976126;28;21316;-68
2024/02/13 12:38:12;;;;;;;1.53;1.37;;;12.70;70.50;;;;;;4975795;28;20415;-68
2024/02/13 12:40:39;;;;;;;2.53;1.30;;;12.70;72.10;;;;;;4978485;28;20465;-68
2024/02/13 12:43:04;;;;;;;1.53;1.10;;;13.00;71.60;;;;;;4976080;28;20941;-69
2024/02/13 12:45:38;;;;;;;1.60;1.50;;;13.90;65.80;;;;;;4976236;28;20446;-68
2024/02/13 12:48:04;;;;;;;2.33;1.17;;;14.10;62.40;;;;;;4975937;28;20239;-68
2024/02/13 12:50:30;;;;;;;1.33;1.23;;;13.60;65.10;;;;;;4993713;28;20419;-69
2024/02/13 12:52:56;;;;;;;1.43;1.20;;;13.60;68.10;;;;;;4994041;28;20803;-69
2024/02/13 12:55:22;;;;;;;2.90;2.40;;;15.00;61.30;;;;;;4986770;28;20207;-69
2024/02/13 12:57:49;;;;;;;5.03;1.53;;;15.50;57.70;;;;;;4975826;28;20227;-69